Wetterdaten: Woche 12.02.24 - 18.02.24 (KW7)
Datum Zeit Temp. A. Feuchte A. Luftdruck Regen Wind Richtung Taupunkt Windchill
12.02.2024 00:00 5,9 C 94 % 1002 hPa 0,0 l/m 0,0 km/h (0 Bft) W-SW 5,0 C 5,9 C
12.02.2024 01:00 5,9 C 94 % 1002 hPa 0,0 l/m 0,0 km/h (0 Bft) W-SW 5,0 C 5,9 C
12.02.2024 02:00 5,9 C 94 % 1002 hPa 0,0 l/m 0,0 km/h (0 Bft) W-SW 5,0 C 5,9 C
12.02.2024 03:00 5,6 C 94 % 1003 hPa 0,0 l/m 0,0 km/h (0 Bft) W-SW 4,7 C 5,6 C
12.02.2024 04:00 5,2 C 94 % 1003 hPa 0,0 l/m 0,0 km/h (0 Bft) W-SW 4,3 C 5,2 C
12.02.2024 05:00 4,8 C 94 % 1003 hPa 0,0 l/m 0,0 km/h (0 Bft) W-SW 3,9 C 4,8 C
12.02.2024 06:00 4,3 C 94 % 1004 hPa 0,0 l/m 0,0 km/h (0 Bft) W-SW 3,4 C 4,3 C
12.02.2024 07:00 4,7 C 94 % 1004 hPa 0,0 l/m 0,0 km/h (0 Bft) W-SW 3,8 C 4,7 C
12.02.2024 08:00 5,1 C 94 % 1005 hPa 0,0 l/m 0,0 km/h (0 Bft) W-SW 4,2 C 5,1 C
12.02.2024 09:00 6,0 C 94 % 1006 hPa 0,0 l/m 0,0 km/h (0 Bft) W-SW 5,1 C 6,0 C
12.02.2024 10:00 7,4 C 94 % 1006 hPa 0,0 l/m 0,0 km/h (0 Bft) W-SW 6,5 C 7,4 C
12.02.2024 11:00 8,0 C 93 % 1007 hPa 0,0 l/m 0,0 km/h (0 Bft) W-SW 6,9 C 8,0 C
12.02.2024 12:00 7,4 C 91 % 1008 hPa 0,0 l/m 0,0 km/h (0 Bft) W-SW 6,1 C 7,4 C
12.02.2024 13:00 7,9 C 91 % 1008 hPa 0,0 l/m 0,0 km/h (0 Bft) W-SW 6,5 C 7,9 C
12.02.2024 14:00 9,0 C 89 % 1008 hPa 0,0 l/m 0,3 km/h (0 Bft) W-SW 7,2 C 9,0 C
12.02.2024 15:00 8,5 C 84 % 1009 hPa 0,0 l/m 0,3 km/h (0 Bft) W 6,0 C 8,5 C
12.02.2024 16:00 7,4 C 85 % 1010 hPa 0,0 l/m 0,0 km/h (0 Bft) W 5,0 C 7,4 C
12.02.2024 17:00 6,3 C 85 % 1011 hPa 0,0 l/m 0,0 km/h (0 Bft) W 4,1 C 6,3 C
12.02.2024 18:00 4,8 C 87 % 1012 hPa 0,0 l/m 0,0 km/h (0 Bft) W 2,8 C 4,8 C
12.02.2024 19:00 4,5 C 88 % 1012 hPa 0,0 l/m 0,0 km/h (0 Bft) W 2,7 C 4,5 C
12.02.2024 20:00 4,9 C 90 % 1014 hPa 1,0 l/m 0,0 km/h (0 Bft) W 3,3 C 4,9 C
12.02.2024 21:00 4,4 C 90 % 1014 hPa 0,0 l/m 0,0 km/h (0 Bft) W 2,9 C 4,4 C
12.02.2024 22:00 3,8 C 91 % 1015 hPa 0,0 l/m 0,0 km/h (0 Bft) W 2,5 C 3,8 C
12.02.2024 23:00 3,3 C 91 % 1016 hPa 0,0 l/m 0,0 km/h (0 Bft) W 2,0 C 3,3 C
13.02.2024 00:00 3,8 C 92 % 1017 hPa 0,0 l/m 0,0 km/h (0 Bft) W 2,5 C 3,8 C
13.02.2024 01:00 4,0 C 92 % 1017 hPa 0,0 l/m 0,0 km/h (0 Bft) W 2,9 C 4,0 C
13.02.2024 02:00 3,4 C 91 % 1018 hPa 0,0 l/m 0,0 km/h (0 Bft) W 2,1 C 3,4 C
13.02.2024 03:00 3,3 C 91 % 1019 hPa 0,0 l/m 0,0 km/h (0 Bft) W 2,0 C 3,3 C
13.02.2024 04:00 3,1 C 91 % 1020 hPa 0,0 l/m 0,0 km/h (0 Bft) W 1,8 C 3,1 C
13.02.2024 05:00 2,0 C 91 % 1020 hPa 0,0 l/m 0,0 km/h (0 Bft) W 0,6 C 2,0 C
13.02.2024 06:00 1,4 C 91 % 1021 hPa 0,0 l/m 0,0 km/h (0 Bft) W 0,1 C 1,4 C
13.02.2024 07:00 1,1 C 91 % 1022 hPa 0,0 l/m 0,0 km/h (0 Bft) S-SW -0,2 C 1,1 C
13.02.2024 08:00 1,8 C 91 % 1022 hPa 0,0 l/m 0,0 km/h (0 Bft) S-SW 0,5 C 1,8 C
13.02.2024 09:00 2,7 C 92 % 1022 hPa 0,0 l/m 0,0 km/h (0 Bft) W 1,5 C 2,7 C
13.02.2024 10:00 5,2 C 91 % 1023 hPa 0,0 l/m 0,2 km/h (0 Bft) SW 3,8 C 5,2 C
13.02.2024 11:00 6,9 C 86 % 1023 hPa 0,0 l/m 0,7 km/h (0 Bft) SW 4,7 C 6,8 C
13.02.2024 12:00 8,2 C 81 % 1023 hPa 0,0 l/m 0,8 km/h (0 Bft) W-NW 5,1 C 8,2 C
13.02.2024 13:00 9,3 C 74 % 1023 hPa 0,0 l/m 0,8 km/h (0 Bft) W 4,9 C 9,1 C
13.02.2024 14:00 9,9 C 70 % 1023 hPa 0,0 l/m 0,7 km/h (0 Bft) W 4,6 C 9,9 C
13.02.2024 15:00 8,8 C 69 % 1024 hPa 0,0 l/m 1,4 km/h (1 Bft) S-SW 3,5 C 8,7 C
13.02.2024 16:00 6,8 C 72 % 1024 hPa 0,0 l/m 1,2 km/h (1 Bft) S-SW 2,0 C 6,5 C
13.02.2024 17:00 5,3 C 75 % 1024 hPa 0,0 l/m 0,2 km/h (0 Bft) SW 1,1 C 5,3 C
13.02.2024 18:00 3,9 C 77 % 1024 hPa 0,0 l/m 0,0 km/h (0 Bft) S 0,2 C 3,9 C
13.02.2024 19:00 2,9 C 79 % 1025 hPa 0,0 l/m 0,0 km/h (0 Bft) S -0,4 C 2,9 C
13.02.2024 20:00 2,5 C 81 % 1025 hPa 0,0 l/m 0,0 km/h (0 Bft) S-SW -0,4 C 2,5 C
13.02.2024 21:00 2,2 C 83 % 1025 hPa 0,0 l/m 0,0 km/h (0 Bft) S-SW -0,5 C 2,2 C
13.02.2024 22:00 2,0 C 84 % 1025 hPa 0,0 l/m 0,0 km/h (0 Bft) S-SW -0,5 C 2,0 C
13.02.2024 23:00 2,4 C 85 % 1024 hPa 0,0 l/m 0,0 km/h (0 Bft) S-SW 0,1 C 2,4 C
14.02.2024 00:00 3,1 C 85 % 1024 hPa 0,0 l/m 0,0 km/h (0 Bft) S-SO 0,8 C 3,1 C
14.02.2024 01:00 3,7 C 85 % 1024 hPa 0,0 l/m 0,0 km/h (0 Bft) SW 1,3 C 3,7 C
14.02.2024 02:00 3,9 C 84 % 1024 hPa 0,0 l/m 0,0 km/h (0 Bft) W 1,4 C 3,9 C
14.02.2024 03:00 4,0 C 84 % 1024 hPa 0,0 l/m 0,0 km/h (0 Bft) W-SW 1,6 C 4,0 C
14.02.2024 04:00 4,3 C 84 % 1024 hPa 0,0 l/m 0,0 km/h (0 Bft) S-SO 1,8 C 4,3 C
14.02.2024 05:00 4,9 C 82 % 1023 hPa 0,0 l/m 0,0 km/h (0 Bft) S-SO 2,2 C 4,9 C
14.02.2024 06:00 5,1 C 82 % 1023 hPa 0,0 l/m 0,0 km/h (0 Bft) S 2,2 C 5,1 C
14.02.2024 07:00 5,3 C 81 % 1023 hPa 0,0 l/m 0,0 km/h (0 Bft) W-SW 2,4 C 5,3 C
14.02.2024 08:00 5,8 C 81 % 1023 hPa 0,0 l/m 0,0 km/h (0 Bft) W-SW 2,8 C 5,8 C
14.02.2024 09:00 6,8 C 81 % 1023 hPa 0,0 l/m 0,0 km/h (0 Bft) SW 3,7 C 6,8 C
14.02.2024 10:00 7,7 C 81 % 1023 hPa 0,0 l/m 1,6 km/h (1 Bft) W 4,6 C 7,4 C
14.02.2024 11:00 8,8 C 80 % 1024 hPa 0,0 l/m 2,3 km/h (1 Bft) W 5,5 C 8,4 C
14.02.2024 12:00 9,3 C 79 % 1024 hPa 0,0 l/m 0,7 km/h (0 Bft) W 5,9 C 9,3 C
14.02.2024 13:00 9,7 C 78 % 1024 hPa 0,0 l/m 0,8 km/h (0 Bft) S-SW 6,1 C 9,6 C
14.02.2024 14:00 9,8 C 79 % 1024 hPa 0,0 l/m 1,5 km/h (1 Bft) W 6,3 C 9,7 C
14.02.2024 15:00 9,9 C 79 % 1024 hPa 0,0 l/m 0,0 km/h (0 Bft) SW 6,4 C 9,9 C
14.02.2024 16:00 9,5 C 80 % 1024 hPa 0,0 l/m 0,0 km/h (0 Bft) W-SW 6,3 C 9,5 C
14.02.2024 17:00 8,9 C 81 % 1024 hPa 0,0 l/m 0,0 km/h (0 Bft) W-NW 5,8 C 8,9 C
14.02.2024 18:00 8,0 C 83 % 1024 hPa 0,0 l/m 0,0 km/h (0 Bft) W-SW 5,2 C 8,0 C
14.02.2024 19:00 7,9 C 84 % 1024 hPa 0,0 l/m 0,0 km/h (0 Bft) SW 5,3 C 7,9 C
14.02.2024 20:00 7,9 C 85 % 1025 hPa 0,5 l/m 0,0 km/h (0 Bft) S-SW 5,5 C 7,9 C
14.02.2024 21:00 7,7 C 86 % 1025 hPa 0,5 l/m 0,0 km/h (0 Bft) W-SW 5,6 C 7,7 C
14.02.2024 22:00 7,5 C 88 % 1024 hPa 0,5 l/m 0,0 km/h (0 Bft) W-SW 5,7 C 7,5 C
14.02.2024 23:00 7,7 C 89 % 1024 hPa 0,0 l/m 0,0 km/h (0 Bft) W-SW 6,1 C 7,7 C
15.02.2024 00:00 7,9 C 90 % 1024 hPa 0,5 l/m 0,0 km/h (0 Bft) SW 6,4 C 7,9 C
15.02.2024 01:00 7,9 C 91 % 1024 hPa 0,0 l/m 0,0 km/h (0 Bft) W 6,6 C 7,9 C
15.02.2024 02:00 8,2 C 91 % 1024 hPa 0,0 l/m 0,0 km/h (0 Bft) W-NW 6,8 C 8,2 C
15.02.2024 03:00 8,4 C 92 % 1024 hPa 0,0 l/m 0,0 km/h (0 Bft) SW 7,1 C 8,4 C
15.02.2024 04:00 8,4 C 92 % 1024 hPa 0,0 l/m 0,0 km/h (0 Bft) S-SO 7,2 C 8,4 C
15.02.2024 05:00 8,4 C 92 % 1024 hPa 0,0 l/m 0,0 km/h (0 Bft) S 7,2 C 8,4 C
15.02.2024 06:00 8,4 C 92 % 1024 hPa 0,0 l/m 0,0 km/h (0 Bft) S 7,1 C 8,4 C
15.02.2024 07:00 8,6 C 92 % 1024 hPa 0,0 l/m 0,0 km/h (0 Bft) S 7,4 C 8,6 C
15.02.2024 08:00 9,1 C 93 % 1024 hPa 0,0 l/m 0,0 km/h (0 Bft) S 8,0 C 9,1 C
15.02.2024 09:00 9,8 C 93 % 1025 hPa 0,0 l/m 0,0 km/h (0 Bft) S 8,7 C 9,8 C
15.02.2024 10:00 10,6 C 93 % 1025 hPa 0,0 l/m 0,0 km/h (0 Bft) S 9,6 C 10,6 C
15.02.2024 11:00 11,5 C 92 % 1024 hPa 0,0 l/m 0,0 km/h (0 Bft) S 10,3 C 11,5 C
15.02.2024 12:00 12,6 C 91 % 1024 hPa 0,0 l/m 0,0 km/h (0 Bft) S 11,1 C 12,6 C
15.02.2024 13:00 13,3 C 88 % 1024 hPa 0,0 l/m 0,0 km/h (0 Bft) S 11,3 C 13,3 C
15.02.2024 14:00 13,9 C 85 % 1023 hPa 0,0 l/m 0,0 km/h (0 Bft) S 11,4 C 13,9 C
15.02.2024 15:00 14,1 C 83 % 1023 hPa 0,0 l/m 0,0 km/h (0 Bft) W-SW 11,2 C 14,1 C
15.02.2024 16:00 13,2 C 82 % 1023 hPa 0,0 l/m 0,0 km/h (0 Bft) W-NW 10,2 C 13,2 C
15.02.2024 17:00 12,2 C 84 % 1022 hPa 0,0 l/m 0,0 km/h (0 Bft) W-NW 9,6 C 12,2 C
15.02.2024 18:00 11,4 C 84 % 1022 hPa 0,0 l/m 0,0 km/h (0 Bft) SW 8,8 C 11,4 C
15.02.2024 19:00 10,5 C 85 % 1022 hPa 0,0 l/m 0,0 km/h (0 Bft) SW 8,2 C 10,5 C
15.02.2024 20:00 9,8 C 86 % 1022 hPa 0,0 l/m 0,0 km/h (0 Bft) SW 7,6 C 9,8 C
15.02.2024 21:00 9,6 C 87 % 1022 hPa 0,0 l/m 0,0 km/h (0 Bft) SO 7,5 C 9,6 C
15.02.2024 22:00 9,8 C 87 % 1021 hPa 0,0 l/m 0,0 km/h (0 Bft) SO 7,8 C 9,8 C
15.02.2024 23:00 9,8 C 87 % 1021 hPa 0,0 l/m 0,0 km/h (0 Bft) S-SO 7,7 C 9,8 C
16.02.2024 00:00 9,9 C 86 % 1020 hPa 0,0 l/m 0,3 km/h (0 Bft) SO 7,7 C 9,9 C
16.02.2024 01:00 9,9 C 85 % 1020 hPa 0,0 l/m 0,0 km/h (0 Bft) S-SO 7,5 C 9,9 C
16.02.2024 02:00 9,9 C 85 % 1020 hPa 0,0 l/m 0,0 km/h (0 Bft) W-SW 7,5 C 9,9 C
16.02.2024 03:00 10,2 C 85 % 1020 hPa 0,0 l/m 0,0 km/h (0 Bft) S-SO 7,7 C 10,2 C
16.02.2024 04:00 10,4 C 83 % 1020 hPa 0,0 l/m 0,0 km/h (0 Bft) S-SO 7,6 C 10,4 C
16.02.2024 05:00 10,4 C 83 % 1020 hPa 0,0 l/m 0,1 km/h (0 Bft) S-SO 7,5 C 10,4 C
16.02.2024 06:00 10,2 C 82 % 1020 hPa 0,0 l/m 0,2 km/h (0 Bft) S-SO 7,3 C 10,2 C
16.02.2024 07:00 10,4 C 82 % 1020 hPa 0,0 l/m 2,8 km/h (1 Bft) S-SO 7,4 C 10,3 C
16.02.2024 08:00 10,9 C 80 % 1020 hPa 0,0 l/m 2,0 km/h (1 Bft) SO 7,6 C 10,5 C
16.02.2024 09:00 11,4 C 79 % 1020 hPa 0,0 l/m 0,0 km/h (0 Bft) SW 7,9 C 11,4 C
16.02.2024 10:00 12,3 C 78 % 1020 hPa 0,0 l/m 4,6 km/h (1 Bft) S-SO 8,4 C 11,2 C
16.02.2024 11:00 13,6 C 74 % 1020 hPa 0,0 l/m 0,5 km/h (0 Bft) W 9,1 C 13,6 C
16.02.2024 12:00 14,4 C 73 % 1020 hPa 0,0 l/m 0,4 km/h (0 Bft) SW 9,7 C 14,4 C
16.02.2024 13:00 14,9 C 71 % 1020 hPa 0,0 l/m 0,5 km/h (0 Bft) SW 9,6 C 14,9 C
16.02.2024 14:00 15,7 C 68 % 1020 hPa 0,0 l/m 1,6 km/h (1 Bft) S-SW 9,8 C 15,6 C
16.02.2024 15:00 16,7 C 66 % 1020 hPa 0,0 l/m 0,9 km/h (0 Bft) SW 10,2 C 16,5 C
16.02.2024 16:00 15,4 C 67 % 1020 hPa 0,0 l/m 0,0 km/h (0 Bft) S-SW 9,3 C 15,4 C
16.02.2024 17:00 13,9 C 70 % 1021 hPa 0,0 l/m 0,0 km/h (0 Bft) SW 8,5 C 13,9 C
16.02.2024 18:00 12,8 C 73 % 1021 hPa 0,0 l/m 0,0 km/h (0 Bft) W-SW 7,9 C 12,8 C
16.02.2024 19:00 12,4 C 75 % 1022 hPa 0,0 l/m 0,0 km/h (0 Bft) W-SW 8,0 C 12,4 C
16.02.2024 20:00 12,2 C 77 % 1023 hPa 0,0 l/m 0,0 km/h (0 Bft) S-SW 8,3 C 12,2 C
16.02.2024 21:00 11,2 C 81 % 1023 hPa 1,0 l/m 0,0 km/h (0 Bft) S-SW 8,0 C 11,2 C
16.02.2024 22:00 10,6 C 84 % 1024 hPa 1,6 l/m 0,0 km/h (0 Bft) S-SW 8,1 C 10,6 C
16.02.2024 23:00 10,5 C 86 % 1024 hPa 2,6 l/m 0,0 km/h (0 Bft) S-SW 8,2 C 10,5 C
17.02.2024 00:00 10,5 C 87 % 1025 hPa 2,1 l/m 0,0 km/h (0 Bft) S-SW 8,5 C 10,5 C
17.02.2024 01:00 10,6 C 85 % 1026 hPa 1,0 l/m 0,0 km/h (0 Bft) W-NW 8,0 C 10,6 C
17.02.2024 02:00 10,3 C 90 % 1026 hPa 0,0 l/m 0,7 km/h (0 Bft) W-NW 8,8 C 10,3 C
17.02.2024 03:00 9,6 C 91 % 1027 hPa 0,0 l/m 0,5 km/h (0 Bft) W-NW 8,2 C 9,6 C
17.02.2024 04:00 8,7 C 91 % 1028 hPa 0,0 l/m 0,0 km/h (0 Bft) W-NW 7,3 C 8,7 C
17.02.2024 05:00 7,9 C 91 % 1028 hPa 0,0 l/m 0,0 km/h (0 Bft) SW 6,5 C 7,9 C
17.02.2024 06:00 7,2 C 91 % 1029 hPa 0,0 l/m 0,0 km/h (0 Bft) SW 5,8 C 7,2 C
17.02.2024 07:00 7,5 C 91 % 1030 hPa 0,0 l/m 0,0 km/h (0 Bft) SW 6,2 C 7,5 C
17.02.2024 08:00 7,5 C 91 % 1031 hPa 0,0 l/m 0,0 km/h (0 Bft) SW 6,2 C 7,5 C
17.02.2024 09:00 8,6 C 92 % 1032 hPa 0,0 l/m 0,0 km/h (0 Bft) SW 7,3 C 8,6 C
17.02.2024 10:00 9,6 C 91 % 1033 hPa 0,0 l/m 0,0 km/h (0 Bft) SW 8,2 C 9,6 C
17.02.2024 11:00 9,7 C 90 % 1034 hPa 0,0 l/m 0,0 km/h (0 Bft) SW 8,1 C 9,7 C
17.02.2024 12:00 10,4 C 87 % 1034 hPa 0,0 l/m 0,0 km/h (0 Bft) SW 8,3 C 10,4 C
17.02.2024 13:00 10,7 C 85 % 1034 hPa 0,0 l/m 0,0 km/h (0 Bft) SW 8,2 C 10,7 C
17.02.2024 14:00 11,0 C 82 % 1035 hPa 0,0 l/m 0,0 km/h (0 Bft) W-NW 8,1 C 11,0 C
17.02.2024 15:00 10,7 C 82 % 1035 hPa 0,0 l/m 0,0 km/h (0 Bft) W-NW 7,7 C 10,7 C
17.02.2024 16:00 10,9 C 81 % 1035 hPa 0,0 l/m 0,3 km/h (0 Bft) W-NW 7,7 C 10,9 C
17.02.2024 17:00 10,0 C 81 % 1036 hPa 0,0 l/m 0,0 km/h (0 Bft) W-NW 6,8 C 10,0 C
17.02.2024 18:00 9,4 C 81 % 1037 hPa 0,0 l/m 0,0 km/h (0 Bft) W-NW 6,4 C 9,4 C
17.02.2024 19:00 9,2 C 82 % 1037 hPa 0,0 l/m 0,0 km/h (0 Bft) W-NW 6,3 C 9,2 C
17.02.2024 20:00 8,9 C 82 % 1038 hPa 0,0 l/m 0,0 km/h (0 Bft) W-NW 6,0 C 8,9 C
17.02.2024 21:00 8,3 C 83 % 1038 hPa 0,0 l/m 0,0 km/h (0 Bft) W-NW 5,6 C 8,3 C
17.02.2024 22:00 7,8 C 84 % 1038 hPa 0,0 l/m 0,0 km/h (0 Bft) W-NW 5,2 C 7,8 C
17.02.2024 23:00 7,1 C 85 % 1038 hPa 0,0 l/m 0,0 km/h (0 Bft) SW 4,8 C 7,1 C
18.02.2024 00:00 6,7 C 86 % 1038 hPa 0,0 l/m 0,1 km/h (0 Bft) O 4,5 C 6,7 C
18.02.2024 01:00 6,4 C 87 % 1038 hPa 0,0 l/m 0,0 km/h (0 Bft) O 4,4 C 6,4 C
18.02.2024 02:00 5,9 C 87 % 1038 hPa 0,0 l/m 0,0 km/h (0 Bft) O 3,9 C 5,9 C
18.02.2024 10:00 8,4 C 90 % 1035 hPa 0,0 l/m 2,6 km/h (1 Bft) N-NO 6,8 C 8,0 C
18.02.2024 11:00 10,2 C 87 % 1035 hPa 0,0 l/m 1,6 km/h (1 Bft) SO 8,1 C 9,8 C
18.02.2024 12:00 12,3 C 81 % 1033 hPa 0,0 l/m 0,0 km/h (0 Bft) SW 9,1 C 12,3 C
18.02.2024 13:00 12,4 C 73 % 1032 hPa 0,0 l/m 0,5 km/h (0 Bft) SW 7,8 C 12,4 C
18.02.2024 14:00 12,2 C 70 % 1031 hPa 0,0 l/m 0,3 km/h (0 Bft) SW 6,9 C 12,2 C
18.02.2024 15:00 11,9 C 68 % 1030 hPa 0,0 l/m 1,3 km/h (1 Bft) SW 6,2 C 11,7 C
18.02.2024 16:00 11,4 C 68 % 1029 hPa 0,0 l/m 0,6 km/h (0 Bft) S-SO 5,6 C 11,4 C
18.02.2024 17:00 10,6 C 68 % 1028 hPa 0,0 l/m 0,8 km/h (0 Bft) S-SO 4,9 C 10,6 C
18.02.2024 18:00 10,0 C 69 % 1027 hPa 0,0 l/m 0,0 km/h (0 Bft) SW 4,5 C 10,0 C
18.02.2024 19:00 9,4 C 73 % 1027 hPa 0,5 l/m 0,2 km/h (0 Bft) W 4,8 C 9,4 C
18.02.2024 20:00 7,8 C 82 % 1026 hPa 1,0 l/m 0,2 km/h (0 Bft) SW 4,9 C 7,8 C
18.02.2024 21:00 7,2 C 85 % 1025 hPa 0,5 l/m 1,2 km/h (1 Bft) W 4,9 C 6,9 C
18.02.2024 22:00 6,9 C 87 % 1025 hPa 0,0 l/m 0,0 km/h (0 Bft) SW 4,9 C 6,9 C
18.02.2024 23:00 7,0 C 88 % 1024 hPa 0,0 l/m 0,2 km/h (0 Bft) W 5,2 C 7,0 C
Min-Datum _ 13.02.24 17.02.24 12.02.24 - 18.02.24 - 17.02.24 13.02.24
_ Min-Zeit 07:00 01:35 02:00 - 23:00 - 01:35 07:00
Minimum _ 1,0 C 44 % 1002 hPa - 0,0 km/h (0 Bft) - -1,1 C 1,0 C
Max-Datum _ 16.02.24 12.02.24 18.02.24 16.02.24 16.02.24 - 15.02.24 16.02.24
_ Max-Zeit 15:15 11:00 00:00 23:00 10:35 - 15:15 15:15
Maximum _ 16,9 C 94 % 1039 hPa 2,6 l/m 14,8 km/h
S-SO (3 Bft)
- 11,7 C 16,9 C
Durchschnitt _ 8,2 C 85 % 1023 hPa #13,5 l/m 0,2 km/h (0 Bft) W-SW 5,7 C 8,2 C